Jolly Acres, South Dakota
Current Conditions -  °F | °C
As of 1:52 AM on Monday 20 Oct 2014 (Local Time) from KRAP Reporting Station
Clear Clear  
Wind Chill: 40°   Ceiling: Unl
Heat Index: 40°   Visibility: 10mi
Dew Point: 35°   Wind: 3mph
Humidity: 83%   Direction: 290°WNW
Pressure: 30.08"   Gusts: NA
Location:  44.0731°N, 103.205°W
Report Text: KRAP 200752Z AUTO 29003KT 10SM CLR 04/02 A3008 RMK AO2 SLP182 T00440017 $
Loading
Personal Weather Stations






























Interactive Weather Map
Tropical Storm Tracking
New forecast layout! Learn more

10-Day Weather Forecast

Advertisements
Track Severe Weather on mobile